sensor_id;sensor_type;location;lat;lon;timestamp;pressure;altitude;pressure_sealevel;temperature;humidity
8416;BME280;4245;42.120;24.732;2023-06-19T00:00:08;99134.00;;;22.45;94.85
8416;BME280;4245;42.120;24.732;2023-06-19T00:02:38;99125.41;;;22.42;95.21
8416;BME280;4245;42.120;24.732;2023-06-19T00:05:06;99140.16;;;22.39;95.52
8416;BME280;4245;42.120;24.732;2023-06-19T00:07:33;99127.06;;;22.43;95.13
8416;BME280;4245;42.120;24.732;2023-06-19T00:10:00;99127.00;;;22.36;95.97
8416;BME280;4245;42.120;24.732;2023-06-19T00:12:29;99122.13;;;22.32;96.22
8416;BME280;4245;42.120;24.732;2023-06-19T00:14:56;99129.03;;;22.34;95.96
8416;BME280;4245;42.120;24.732;2023-06-19T00:17:23;99121.59;;;22.36;95.69
8416;BME280;4245;42.120;24.732;2023-06-19T00:19:51;99126.22;;;22.28;95.96
8416;BME280;4245;42.120;24.732;2023-06-19T00:22:19;99129.59;;;22.15;97.41
8416;BME280;4245;42.120;24.732;2023-06-19T00:24:46;99131.06;;;22.18;96.72
8416;BME280;4245;42.120;24.732;2023-06-19T00:27:13;99131.63;;;22.13;97.40
8416;BME280;4245;42.120;24.732;2023-06-19T00:29:41;99138.91;;;22.13;97.50
8416;BME280;4245;42.120;24.732;2023-06-19T00:32:08;99141.72;;;22.19;96.89
8416;BME280;4245;42.120;24.732;2023-06-19T00:34:35;99140.38;;;22.00;97.96
8416;BME280;4245;42.120;24.732;2023-06-19T00:37:04;99142.66;;;22.12;97.30
8416;BME280;4245;42.120;24.732;2023-06-19T00:39:31;99137.63;;;22.23;96.17
8416;BME280;4245;42.120;24.732;2023-06-19T00:41:58;99133.19;;;22.07;96.82
8416;BME280;4245;42.120;24.732;2023-06-19T00:44:25;99139.09;;;21.88;99.18
8416;BME280;4245;42.120;24.732;2023-06-19T00:46:57;99147.53;;;21.93;98.62
8416;BME280;4245;42.120;24.732;2023-06-19T00:49:25;99138.47;;;21.86;99.24
8416;BME280;4245;42.120;24.732;2023-06-19T00:51:52;99139.31;;;21.87;99.37
8416;BME280;4245;42.120;24.732;2023-06-19T00:54:20;99138.00;;;21.83;99.34
8416;BME280;4245;42.120;24.732;2023-06-19T00:56:47;99134.16;;;21.77;99.50
8416;BME280;4245;42.120;24.732;2023-06-19T00:59:16;99137.69;;;22.00;97.20
8416;BME280;4245;42.120;24.732;2023-06-19T01:01:44;99137.69;;;21.78;98.68
8416;BME280;4245;42.120;24.732;2023-06-19T01:04:13;99136.34;;;21.74;98.76
8416;BME280;4245;42.120;24.732;2023-06-19T01:06:45;99132.16;;;21.71;99.39
8416;BME280;4245;42.120;24.732;2023-06-19T01:09:15;99127.81;;;21.85;97.49
8416;BME280;4245;42.120;24.732;2023-06-19T01:11:47;99135.63;;;21.80;97.80
8416;BME280;4245;42.120;24.732;2023-06-19T01:14:18;99130.81;;;21.90;96.81
8416;BME280;4245;42.120;24.732;2023-06-19T01:16:46;99130.94;;;21.74;97.37
8416;BME280;4245;42.120;24.732;2023-06-19T01:19:18;99133.47;;;21.75;98.01
8416;BME280;4245;42.120;24.732;2023-06-19T01:21:46;99130.72;;;21.60;99.05
8416;BME280;4245;42.120;24.732;2023-06-19T01:24:14;99132.25;;;21.63;98.03
8416;BME280;4245;42.120;24.732;2023-06-19T01:26:41;99130.72;;;21.60;98.95
8416;BME280;4245;42.120;24.732;2023-06-19T01:29:12;99131.81;;;21.51;99.23
8416;BME280;4245;42.120;24.732;2023-06-19T01:31:46;99132.63;;;21.75;97.35
8416;BME280;4245;42.120;24.732;2023-06-19T01:34:19;99135.25;;;21.68;97.53
8416;BME280;4245;42.120;24.732;2023-06-19T01:36:48;99138.13;;;21.66;98.11
8416;BME280;4245;42.120;24.732;2023-06-19T01:39:17;99137.06;;;21.53;98.50
8416;BME280;4245;42.120;24.732;2023-06-19T01:41:45;99133.97;;;21.56;98.12
8416;BME280;4245;42.120;24.732;2023-06-19T01:44:13;99130.09;;;21.58;98.38
8416;BME280;4245;42.120;24.732;2023-06-19T01:46:40;99127.72;;;21.55;97.91
8416;BME280;4245;42.120;24.732;2023-06-19T01:49:08;99127.63;;;21.49;98.50
8416;BME280;4245;42.120;24.732;2023-06-19T01:51:35;99121.97;;;21.58;97.41
8416;BME280;4245;42.120;24.732;2023-06-19T01:54:03;99117.28;;;21.52;98.03
8416;BME280;4245;42.120;24.732;2023-06-19T01:56:32;99122.41;;;21.47;98.18
8416;BME280;4245;42.120;24.732;2023-06-19T01:58:59;99121.25;;;21.42;98.28
8416;BME280;4245;42.120;24.732;2023-06-19T02:01:26;99115.84;;;21.42;98.70
8416;BME280;4245;42.120;24.732;2023-06-19T02:03:53;99118.84;;;21.47;98.36
8416;BME280;4245;42.120;24.732;2023-06-19T02:06:20;99118.91;;;21.61;96.57
8416;BME280;4245;42.120;24.732;2023-06-19T02:08:48;99123.09;;;21.64;96.35
8416;BME280;4245;42.120;24.732;2023-06-19T02:11:15;99122.53;;;21.54;96.37
8416;BME280;4245;42.120;24.732;2023-06-19T02:13:43;99119.53;;;21.49;96.96
8416;BME280;4245;42.120;24.732;2023-06-19T02:16:10;99128.69;;;21.62;95.71
8416;BME280;4245;42.120;24.732;2023-06-19T02:18:37;99125.16;;;21.62;94.76
8416;BME280;4245;42.120;24.732;2023-06-19T02:21:04;99129.00;;;21.67;94.42
8416;BME280;4245;42.120;24.732;2023-06-19T02:23:31;99144.66;;;21.72;93.67
8416;BME280;4245;42.120;24.732;2023-06-19T02:25:58;99139.91;;;21.74;92.89
8416;BME280;4245;42.120;24.732;2023-06-19T02:28:25;99142.44;;;21.76;92.50
8416;BME280;4245;42.120;24.732;2023-06-19T02:30:54;99146.28;;;21.81;92.45
8416;BME280;4245;42.120;24.732;2023-06-19T02:33:21;99138.41;;;21.72;92.70
8416;BME280;4245;42.120;24.732;2023-06-19T02:35:48;99139.06;;;21.74;92.13
8416;BME280;4245;42.120;24.732;2023-06-19T02:38:15;99148.31;;;21.79;91.99
8416;BME280;4245;42.120;24.732;2023-06-19T02:40:44;99139.34;;;21.79;91.56
8416;BME280;4245;42.120;24.732;2023-06-19T02:43:11;99144.41;;;21.82;91.24
8416;BME280;4245;42.120;24.732;2023-06-19T02:45:38;99146.88;;;21.91;90.22
8416;BME280;4245;42.120;24.732;2023-06-19T02:48:06;99146.75;;;21.85;90.44
8416;BME280;4245;42.120;24.732;2023-06-19T02:50:33;99147.75;;;21.84;90.87
8416;BME280;4245;42.120;24.732;2023-06-19T02:53:00;99149.66;;;21.83;90.18
8416;BME280;4245;42.120;24.732;2023-06-19T02:55:27;99154.13;;;21.91;89.49
8416;BME280;4245;42.120;24.732;2023-06-19T02:57:54;99150.13;;;21.87;90.15
8416;BME280;4245;42.120;24.732;2023-06-19T03:00:21;99157.50;;;21.93;89.70
8416;BME280;4245;42.120;24.732;2023-06-19T03:02:48;99156.56;;;21.86;89.93
8416;BME280;4245;42.120;24.732;2023-06-19T03:05:17;99157.28;;;21.80;90.52
8416;BME280;4245;42.120;24.732;2023-06-19T03:07:44;99147.91;;;21.67;92.33
8416;BME280;4245;42.120;24.732;2023-06-19T03:10:11;99147.91;;;21.67;92.93
8416;BME280;4245;42.120;24.732;2023-06-19T03:12:38;99154.53;;;21.65;92.90
8416;BME280;4245;42.120;24.732;2023-06-19T03:15:06;99150.19;;;21.56;93.63
8416;BME280;4245;42.120;24.732;2023-06-19T03:17:33;99144.53;;;21.65;93.15
8416;BME280;4245;42.120;24.732;2023-06-19T03:20:00;99143.69;;;21.65;93.21
8416;BME280;4245;42.120;24.732;2023-06-19T03:22:29;99148.41;;;21.48;94.91
8416;BME280;4245;42.120;24.732;2023-06-19T03:24:56;99154.47;;;21.50;95.43
8416;BME280;4245;42.120;24.732;2023-06-19T03:27:23;99150.59;;;21.45;96.35
8416;BME280;4245;42.120;24.732;2023-06-19T03:29:50;99153.31;;;21.45;96.61
8416;BME280;4245;42.120;24.732;2023-06-19T03:32:17;99161.94;;;21.48;96.37
8416;BME280;4245;42.120;24.732;2023-06-19T03:34:45;99154.34;;;21.44;97.08
8416;BME280;4245;42.120;24.732;2023-06-19T03:37:13;99157.28;;;21.57;95.26
8416;BME280;4245;42.120;24.732;2023-06-19T03:39:42;99160.22;;;21.47;96.00
8416;BME280;4245;42.120;24.732;2023-06-19T03:42:09;99163.88;;;21.54;95.59
8416;BME280;4245;42.120;24.732;2023-06-19T03:44:36;99157.16;;;21.50;95.84
8416;BME280;4245;42.120;24.732;2023-06-19T03:47:03;99163.72;;;21.56;95.70
8416;BME280;4245;42.120;24.732;2023-06-19T03:49:30;99166.16;;;21.65;95.82
8416;BME280;4245;42.120;24.732;2023-06-19T03:51:57;99159.75;;;21.66;94.56
8416;BME280;4245;42.120;24.732;2023-06-19T03:54:25;99162.75;;;21.72;94.90
8416;BME280;4245;42.120;24.732;2023-06-19T03:56:54;99163.41;;;21.74;94.78
8416;BME280;4245;42.120;24.732;2023-06-19T03:59:21;99162.16;;;21.61;95.73
8416;BME280;4245;42.120;24.732;2023-06-19T04:01:48;99163.63;;;21.64;96.58
8416;BME280;4245;42.120;24.732;2023-06-19T04:04:15;99160.91;;;21.72;96.41
8416;BME280;4245;42.120;24.732;2023-06-19T04:06:42;99158.84;;;21.74;96.38
8416;BME280;4245;42.120;24.732;2023-06-19T04:09:08;99155.41;;;21.80;96.73
8416;BME280;4245;42.120;24.732;2023-06-19T04:11:35;99152.53;;;21.82;96.10
8416;BME280;4245;42.120;24.732;2023-06-19T04:14:04;99152.00;;;21.86;96.07
8416;BME280;4245;42.120;24.732;2023-06-19T04:16:31;99147.53;;;21.93;96.27
8416;BME280;4245;42.120;24.732;2023-06-19T04:18:58;99141.00;;;21.88;97.09
8416;BME280;4245;42.120;24.732;2023-06-19T04:21:26;99148.97;;;22.04;95.92
8416;BME280;4245;42.120;24.732;2023-06-19T04:23:53;99143.84;;;22.09;94.94
8416;BME280;4245;42.120;24.732;2023-06-19T04:26:19;99143.22;;;22.07;95.38
8416;BME280;4245;42.120;24.732;2023-06-19T04:28:47;99141.31;;;22.07;95.74
8416;BME280;4245;42.120;24.732;2023-06-19T04:31:15;99139.41;;;22.31;94.41
8416;BME280;4245;42.120;24.732;2023-06-19T04:33:43;99144.44;;;22.48;92.08
8416;BME280;4245;42.120;24.732;2023-06-19T04:36:10;99150.69;;;22.49;92.31
8416;BME280;4245;42.120;24.732;2023-06-19T04:38:37;99149.84;;;22.63;91.95
8416;BME280;4245;42.120;24.732;2023-06-19T04:41:04;99155.28;;;22.78;88.77
8416;BME280;4245;42.120;24.732;2023-06-19T04:43:31;99158.66;;;22.80;88.86
8416;BME280;4245;42.120;24.732;2023-06-19T04:45:59;99164.53;;;22.83;87.15
8416;BME280;4245;42.120;24.732;2023-06-19T04:48:30;99159.81;;;23.07;85.63
8416;BME280;4245;42.120;24.732;2023-06-19T04:50:57;99168.50;;;23.17;84.93
8416;BME280;4245;42.120;24.732;2023-06-19T04:53:26;99168.44;;;23.46;81.93
8416;BME280;4245;42.120;24.732;2023-06-19T04:55:54;99167.03;;;23.50;81.00
8416;BME280;4245;42.120;24.732;2023-06-19T04:58:21;99157.28;;;23.56;80.17
8416;BME280;4245;42.120;24.732;2023-06-19T05:00:48;99157.47;;;23.75;78.64
8416;BME280;4245;42.120;24.732;2023-06-19T05:03:16;99154.09;;;23.73;78.63
8416;BME280;4245;42.120;24.732;2023-06-19T05:05:45;99158.59;;;23.88;79.17
8416;BME280;4245;42.120;24.732;2023-06-19T05:08:12;99157.34;;;24.11;76.79
8416;BME280;4245;42.120;24.732;2023-06-19T05:10:39;99162.41;;;24.14;77.30
8416;BME280;4245;42.120;24.732;2023-06-19T05:13:06;99158.91;;;24.48;75.22
8416;BME280;4245;42.120;24.732;2023-06-19T05:15:33;99157.63;;;24.44;73.93
8416;BME280;4245;42.120;24.732;2023-06-19T05:18:00;99159.41;;;24.65;73.67
8416;BME280;4245;42.120;24.732;2023-06-19T05:20:28;99165.84;;;24.57;74.48
8416;BME280;4245;42.120;24.732;2023-06-19T05:22:56;99172.25;;;24.84;73.26
8416;BME280;4245;42.120;24.732;2023-06-19T05:25:23;99162.13;;;24.99;72.51
8416;BME280;4245;42.120;24.732;2023-06-19T05:27:50;99162.16;;;25.06;71.08
8416;BME280;4245;42.120;24.732;2023-06-19T05:30:17;99162.84;;;25.21;70.66
8416;BME280;4245;42.120;24.732;2023-06-19T05:32:44;99177.31;;;25.35;69.01
8416;BME280;4245;42.120;24.732;2023-06-19T05:35:11;99177.34;;;25.41;67.91
8416;BME280;4245;42.120;24.732;2023-06-19T05:37:38;99176.06;;;25.31;68.19
8416;BME280;4245;42.120;24.732;2023-06-19T05:40:10;99172.09;;;25.40;68.07
8416;BME280;4245;42.120;24.732;2023-06-19T05:42:37;99167.72;;;25.52;69.11
8416;BME280;4245;42.120;24.732;2023-06-19T05:45:05;99171.78;;;25.82;67.10
8416;BME280;4245;42.120;24.732;2023-06-19T05:47:32;99168.63;;;25.85;66.64
8416;BME280;4245;42.120;24.732;2023-06-19T05:50:00;99174.50;;;25.76;66.93
8416;BME280;4245;42.120;24.732;2023-06-19T05:52:27;99173.25;;;26.11;65.95
8416;BME280;4245;42.120;24.732;2023-06-19T05:54:53;99174.97;;;26.32;65.10
8416;BME280;4245;42.120;24.732;2023-06-19T05:57:22;99179.34;;;26.46;65.13
8416;BME280;4245;42.120;24.732;2023-06-19T05:59:49;99185.16;;;26.63;63.64
8416;BME280;4245;42.120;24.732;2023-06-19T06:02:17;99177.59;;;26.85;63.10
8416;BME280;4245;42.120;24.732;2023-06-19T06:04:44;99189.34;;;26.78;60.05
8416;BME280;4245;42.120;24.732;2023-06-19T06:07:11;99184.75;;;26.59;60.95
8416;BME280;4245;42.120;24.732;2023-06-19T06:09:39;99181.63;;;26.56;60.16
8416;BME280;4245;42.120;24.732;2023-06-19T06:12:06;99180.81;;;26.49;60.89
8416;BME280;4245;42.120;24.732;2023-06-19T06:14:35;99177.41;;;26.73;59.97
8416;BME280;4245;42.120;24.732;2023-06-19T06:17:02;99179.69;;;26.96;57.63
8416;BME280;4245;42.120;24.732;2023-06-19T06:19:30;99172.56;;;26.95;58.01
8416;BME280;4245;42.120;24.732;2023-06-19T06:21:57;99175.09;;;26.90;57.57
8416;BME280;4245;42.120;24.732;2023-06-19T06:24:24;99182.81;;;26.93;58.53
8416;BME280;4245;42.120;24.732;2023-06-19T06:26:51;99177.09;;;27.07;56.29
8416;BME280;4245;42.120;24.732;2023-06-19T06:29:18;99179.34;;;27.30;55.01
8416;BME280;4245;42.120;24.732;2023-06-19T06:31:47;99183.66;;;27.00;55.10
8416;BME280;4245;42.120;24.732;2023-06-19T06:34:14;99183.84;;;26.98;54.54
8416;BME280;4245;42.120;24.732;2023-06-19T06:36:41;99177.94;;;27.08;54.67
8416;BME280;4245;42.120;24.732;2023-06-19T06:39:08;99181.25;;;27.23;55.21
8416;BME280;4245;42.120;24.732;2023-06-19T06:41:35;99186.78;;;27.54;54.19
8416;BME280;4245;42.120;24.732;2023-06-19T06:44:01;99183.31;;;27.72;53.00
8416;BME280;4245;42.120;24.732;2023-06-19T06:46:52;99187.97;;;27.65;53.57
8416;BME280;4245;42.120;24.732;2023-06-19T06:49:20;99187.00;;;27.84;52.90
8416;BME280;4245;42.120;24.732;2023-06-19T06:51:47;99183.06;;;28.12;52.85
8416;BME280;4245;42.120;24.732;2023-06-19T06:54:14;99190.69;;;27.96;52.87
8416;BME280;4245;42.120;24.732;2023-06-19T06:56:41;99184.06;;;27.86;53.01
8416;BME280;4245;42.120;24.732;2023-06-19T06:59:11;99188.88;;;27.84;53.08
8416;BME280;4245;42.120;24.732;2023-06-19T07:01:38;99195.16;;;27.91;52.98
8416;BME280;4245;42.120;24.732;2023-06-19T07:04:06;99193.59;;;28.01;52.58
8416;BME280;4245;42.120;24.732;2023-06-19T07:06:33;99192.09;;;28.12;53.08
8416;BME280;4245;42.120;24.732;2023-06-19T07:09:00;99191.34;;;28.23;52.42
8416;BME280;4245;42.120;24.732;2023-06-19T07:11:27;99185.94;;;28.41;52.13
8416;BME280;4245;42.120;24.732;2023-06-19T07:13:54;99194.06;;;28.48;51.10
8416;BME280;4245;42.120;24.732;2023-06-19T07:16:21;99193.50;;;28.64;51.19
8416;BME280;4245;42.120;24.732;2023-06-19T07:18:48;99198.53;;;28.85;50.99
8416;BME280;4245;42.120;24.732;2023-06-19T07:21:17;99194.53;;;28.88;49.32
8416;BME280;4245;42.120;24.732;2023-06-19T07:23:45;99204.38;;;28.71;48.93
8416;BME280;4245;42.120;24.732;2023-06-19T07:26:13;99188.75;;;28.53;49.43
8416;BME280;4245;42.120;24.732;2023-06-19T07:28:40;99206.22;;;28.77;49.08
8416;BME280;4245;42.120;24.732;2023-06-19T07:31:07;99199.84;;;28.83;49.06
8416;BME280;4245;42.120;24.732;2023-06-19T07:33:34;99198.41;;;28.80;47.86
8416;BME280;4245;42.120;24.732;2023-06-19T07:36:01;99195.56;;;29.05;48.22
8416;BME280;4245;42.120;24.732;2023-06-19T07:38:30;99187.44;;;29.17;46.85
8416;BME280;4245;42.120;24.732;2023-06-19T07:40:57;99197.03;;;29.08;47.21
8416;BME280;4245;42.120;24.732;2023-06-19T07:43:24;99196.78;;;29.27;46.22
8416;BME280;4245;42.120;24.732;2023-06-19T07:45:51;99200.13;;;29.48;46.13
8416;BME280;4245;42.120;24.732;2023-06-19T07:48:18;99199.38;;;29.41;46.70
8416;BME280;4245;42.120;24.732;2023-06-19T07:50:45;99194.66;;;29.48;46.57
8416;BME280;4245;42.120;24.732;2023-06-19T07:53:12;99199.75;;;29.74;45.41
8416;BME280;4245;42.120;24.732;2023-06-19T07:55:41;99203.03;;;29.53;45.26
8416;BME280;4245;42.120;24.732;2023-06-19T07:58:08;99203.03;;;29.53;45.53
8416;BME280;4245;42.120;24.732;2023-06-19T08:00:34;99211.13;;;29.59;45.10
8416;BME280;4245;42.120;24.732;2023-06-19T08:03:02;99205.06;;;29.57;45.12
8416;BME280;4245;42.120;24.732;2023-06-19T08:05:28;99206.16;;;29.98;44.58
8416;BME280;4245;42.120;24.732;2023-06-19T08:07:56;99203.97;;;29.58;45.31
8416;BME280;4245;42.120;24.732;2023-06-19T08:10:23;99215.91;;;29.64;43.74
8416;BME280;4245;42.120;24.732;2023-06-19T08:12:51;99206.34;;;29.85;44.62
8416;BME280;4245;42.120;24.732;2023-06-19T08:15:18;99210.75;;;30.15;44.28
8416;BME280;4245;42.120;24.732;2023-06-19T08:17:44;99206.16;;;30.51;43.32
8416;BME280;4245;42.120;24.732;2023-06-19T08:20:12;99219.22;;;30.37;43.31
8416;BME280;4245;42.120;24.732;2023-06-19T08:22:39;99211.94;;;30.19;42.90
8416;BME280;4245;42.120;24.732;2023-06-19T08:25:06;99210.22;;;30.48;42.69
8416;BME280;4245;42.120;24.732;2023-06-19T08:27:33;99213.47;;;30.27;41.44
8416;BME280;4245;42.120;24.732;2023-06-19T08:30:01;99211.53;;;30.57;41.12
8416;BME280;4245;42.120;24.732;2023-06-19T08:32:29;99205.31;;;30.74;41.15
8416;BME280;4245;42.120;24.732;2023-06-19T08:34:55;99220.22;;;30.78;42.24
8416;BME280;4245;42.120;24.732;2023-06-19T08:37:22;99216.28;;;30.97;40.71
8416;BME280;4245;42.120;24.732;2023-06-19T08:39:49;99219.56;;;31.34;41.13
8416;BME280;4245;42.120;24.732;2023-06-19T08:42:16;99216.19;;;31.43;40.21
8416;BME280;4245;42.120;24.732;2023-06-19T08:44:42;99229.06;;;31.03;40.74
8416;BME280;4245;42.120;24.732;2023-06-19T08:47:11;99212.44;;;31.21;40.75
8416;BME280;4245;42.120;24.732;2023-06-19T08:49:38;99222.38;;;31.50;40.77
8416;BME280;4245;42.120;24.732;2023-06-19T08:52:06;99212.72;;;31.76;40.34
8416;BME280;4245;42.120;24.732;2023-06-19T08:54:33;99227.25;;;32.17;39.20
8416;BME280;4245;42.120;24.732;2023-06-19T08:57:09;99230.56;;;32.35;37.96
8416;BME280;4245;42.120;24.732;2023-06-19T08:59:36;99221.66;;;31.43;38.50
8416;BME280;4245;42.120;24.732;2023-06-19T09:02:03;99224.09;;;31.28;38.87
8416;BME280;4245;42.120;24.732;2023-06-19T09:04:31;99213.41;;;30.80;40.41
8416;BME280;4245;42.120;24.732;2023-06-19T09:07:01;99216.56;;;31.35;40.33
8416;BME280;4245;42.120;24.732;2023-06-19T09:09:28;99214.44;;;31.94;37.83
8416;BME280;4245;42.120;24.732;2023-06-19T09:12:00;99221.88;;;32.10;37.61
8416;BME280;4245;42.120;24.732;2023-06-19T09:14:34;99214.00;;;32.30;37.68
8416;BME280;4245;42.120;24.732;2023-06-19T09:17:02;99222.31;;;32.86;36.27
8416;BME280;4245;42.120;24.732;2023-06-19T09:19:30;99218.56;;;32.25;36.41
8416;BME280;4245;42.120;24.732;2023-06-19T09:22:01;99213.03;;;32.08;37.73
8416;BME280;4245;42.120;24.732;2023-06-19T09:24:37;99204.25;;;32.56;37.27
8416;BME280;4245;42.120;24.732;2023-06-19T09:27:08;99197.91;;;32.56;37.94
8416;BME280;4245;42.120;24.732;2023-06-19T09:29:38;99203.31;;;31.72;36.93
8416;BME280;4245;42.120;24.732;2023-06-19T09:32:23;99191.09;;;31.52;38.45
8416;BME280;4245;42.120;24.732;2023-06-19T09:34:53;99202.09;;;31.97;37.43
8416;BME280;4245;42.120;24.732;2023-06-19T09:37:22;99196.22;;;32.05;37.86
8416;BME280;4245;42.120;24.732;2023-06-19T09:39:52;99200.34;;;31.74;37.99
8416;BME280;4245;42.120;24.732;2023-06-19T09:42:24;99198.06;;;31.99;37.15
8416;BME280;4245;42.120;24.732;2023-06-19T09:44:55;99189.63;;;32.06;37.71
8416;BME280;4245;42.120;24.732;2023-06-19T09:47:25;99186.88;;;31.89;38.16
8416;BME280;4245;42.120;24.732;2023-06-19T09:49:56;99185.25;;;32.38;36.85
8416;BME280;4245;42.120;24.732;2023-06-19T09:52:24;99173.09;;;31.72;38.45
8416;BME280;4245;42.120;24.732;2023-06-19T09:54:51;99187.16;;;32.21;37.96
8416;BME280;4245;42.120;24.732;2023-06-19T09:57:18;99178.59;;;32.17;37.80
8416;BME280;4245;42.120;24.732;2023-06-19T09:59:46;99184.91;;;33.06;35.96
8416;BME280;4245;42.120;24.732;2023-06-19T10:02:15;99175.69;;;33.39;35.35
8416;BME280;4245;42.120;24.732;2023-06-19T10:04:43;99181.06;;;34.31;34.92
8416;BME280;4245;42.120;24.732;2023-06-19T10:07:20;99174.31;;;34.54;32.47
8416;BME280;4245;42.120;24.732;2023-06-19T10:10:01;99181.28;;;34.67;32.03
8416;BME280;4245;42.120;24.732;2023-06-19T10:12:40;99174.56;;;34.89;31.26
8416;BME280;4245;42.120;24.732;2023-06-19T10:15:15;99170.69;;;35.43;31.23
8416;BME280;4245;42.120;24.732;2023-06-19T10:17:48;99171.41;;;36.21;30.42
8416;BME280;4245;42.120;24.732;2023-06-19T10:20:25;99173.34;;;36.45;29.96
8416;BME280;4245;42.120;24.732;2023-06-19T10:22:59;99165.25;;;36.79;30.38
8416;BME280;4245;42.120;24.732;2023-06-19T10:25:31;99163.06;;;36.61;29.67
8416;BME280;4245;42.120;24.732;2023-06-19T10:27:59;99164.47;;;36.43;30.28
8416;BME280;4245;42.120;24.732;2023-06-19T10:30:26;99168.59;;;36.05;30.36
8416;BME280;4245;42.120;24.732;2023-06-19T10:32:53;99171.69;;;36.24;29.62
8416;BME280;4245;42.120;24.732;2023-06-19T10:35:20;99164.47;;;36.64;29.60
8416;BME280;4245;42.120;24.732;2023-06-19T10:37:49;99162.50;;;36.03;29.25
8416;BME280;4245;42.120;24.732;2023-06-19T10:40:18;99161.97;;;36.27;29.21
8416;BME280;4245;42.120;24.732;2023-06-19T10:42:45;99159.44;;;36.71;29.06
8416;BME280;4245;42.120;24.732;2023-06-19T10:45:13;99162.09;;;37.16;27.93
8416;BME280;4245;42.120;24.732;2023-06-19T10:47:41;99168.41;;;37.32;27.84
8416;BME280;4245;42.120;24.732;2023-06-19T10:50:12;99164.22;;;36.35;28.69
8416;BME280;4245;42.120;24.732;2023-06-19T10:52:43;99158.06;;;35.72;29.21
8416;BME280;4245;42.120;24.732;2023-06-19T10:55:11;99129.94;;;35.13;30.64
8416;BME280;4245;42.120;24.732;2023-06-19T10:57:40;99138.38;;;34.86;30.62
8416;BME280;4245;42.120;24.732;2023-06-19T11:00:11;99136.94;;;35.36;30.33
8416;BME280;4245;42.120;24.732;2023-06-19T11:02:39;99138.16;;;35.75;30.19
8416;BME280;4245;42.120;24.732;2023-06-19T11:05:09;99135.41;;;35.80;29.48
8416;BME280;4245;42.120;24.732;2023-06-19T11:07:36;99122.84;;;35.32;30.19
8416;BME280;4245;42.120;24.732;2023-06-19T11:10:04;99132.81;;;35.38;30.12
8416;BME280;4245;42.120;24.732;2023-06-19T11:12:31;99120.44;;;35.56;29.94
8416;BME280;4245;42.120;24.732;2023-06-19T11:15:03;99118.53;;;36.63;29.03
8416;BME280;4245;42.120;24.732;2023-06-19T11:17:31;99126.88;;;37.27;28.58
8416;BME280;4245;42.120;24.732;2023-06-19T11:19:58;99122.25;;;37.07;28.72
8416;BME280;4245;42.120;24.732;2023-06-19T11:22:36;99108.66;;;37.16;29.08
8416;BME280;4245;42.120;24.732;2023-06-19T11:25:03;99106.16;;;37.14;27.86
8416;BME280;4245;42.120;24.732;2023-06-19T11:27:31;99119.88;;;36.60;29.06
8416;BME280;4245;42.120;24.732;2023-06-19T11:29:59;99121.59;;;35.95;30.41
8416;BME280;4245;42.120;24.732;2023-06-19T11:32:33;99107.47;;;36.12;29.87
8416;BME280;4245;42.120;24.732;2023-06-19T11:35:06;99115.22;;;35.69;29.94
8416;BME280;4245;42.120;24.732;2023-06-19T11:37:33;99107.44;;;34.79;30.71
8416;BME280;4245;42.120;24.732;2023-06-19T11:40:01;99102.97;;;33.89;31.93
8416;BME280;4245;42.120;24.732;2023-06-19T11:42:44;99107.13;;;34.28;31.62
8416;BME280;4245;42.120;24.732;2023-06-19T11:45:13;99102.22;;;34.82;31.04
8416;BME280;4245;42.120;24.732;2023-06-19T11:47:39;99103.22;;;35.23;31.14
8416;BME280;4245;42.120;24.732;2023-06-19T11:50:07;99105.53;;;36.07;29.98
8416;BME280;4245;42.120;24.732;2023-06-19T11:52:34;99102.19;;;35.65;29.91
8416;BME280;4245;42.120;24.732;2023-06-19T11:55:01;99097.75;;;35.54;30.48
8416;BME280;4245;42.120;24.732;2023-06-19T11:57:28;99099.47;;;36.31;29.29
8416;BME280;4245;42.120;24.732;2023-06-19T11:59:54;99099.34;;;36.86;28.60
8416;BME280;4245;42.120;24.732;2023-06-19T12:02:23;99099.50;;;36.26;29.08
8416;BME280;4245;42.120;24.732;2023-06-19T12:04:50;99096.69;;;35.70;29.61
8416;BME280;4245;42.120;24.732;2023-06-19T12:07:16;99095.44;;;34.58;31.62
8416;BME280;4245;42.120;24.732;2023-06-19T12:09:43;99082.16;;;34.08;32.11
8416;BME280;4245;42.120;24.732;2023-06-19T12:12:10;99088.59;;;33.87;32.40
8416;BME280;4245;42.120;24.732;2023-06-19T12:14:37;99079.81;;;34.27;31.62
8416;BME280;4245;42.120;24.732;2023-06-19T12:17:05;99079.50;;;35.27;30.90
8416;BME280;4245;42.120;24.732;2023-06-19T12:19:33;99087.03;;;36.18;28.86
8416;BME280;4245;42.120;24.732;2023-06-19T12:22:00;99085.66;;;36.31;28.01
8416;BME280;4245;42.120;24.732;2023-06-19T12:24:26;99084.66;;;36.86;27.19
8416;BME280;4245;42.120;24.732;2023-06-19T12:26:53;99079.50;;;37.23;26.41
8416;BME280;4245;42.120;24.732;2023-06-19T12:29:20;99070.44;;;37.13;25.88
8416;BME280;4245;42.120;24.732;2023-06-19T12:31:47;99068.03;;;36.86;26.82
8416;BME280;4245;42.120;24.732;2023-06-19T12:34:13;99061.72;;;36.75;26.53
8416;BME280;4245;42.120;24.732;2023-06-19T12:36:44;99068.75;;;35.61;27.25
8416;BME280;4245;42.120;24.732;2023-06-19T12:39:11;99058.53;;;35.62;27.56
8416;BME280;4245;42.120;24.732;2023-06-19T12:41:41;99070.47;;;35.78;26.75
8416;BME280;4245;42.120;24.732;2023-06-19T12:44:08;99060.19;;;35.48;27.24
8416;BME280;4245;42.120;24.732;2023-06-19T12:46:35;99062.97;;;35.88;27.46
8416;BME280;4245;42.120;24.732;2023-06-19T12:49:02;99048.88;;;35.95;26.84
8416;BME280;4245;42.120;24.732;2023-06-19T12:51:28;99054.09;;;35.61;27.09
8416;BME280;4245;42.120;24.732;2023-06-19T12:53:56;99050.25;;;35.97;27.18
8416;BME280;4245;42.120;24.732;2023-06-19T12:56:23;99050.66;;;36.70;26.48
8416;BME280;4245;42.120;24.732;2023-06-19T12:58:50;99057.03;;;37.30;26.51
8416;BME280;4245;42.120;24.732;2023-06-19T13:01:17;99064.03;;;38.00;25.19
8416;BME280;4245;42.120;24.732;2023-06-19T13:03:44;99070.09;;;37.68;24.86
8416;BME280;4245;42.120;24.732;2023-06-19T13:06:10;99059.13;;;36.94;25.49
8416;BME280;4245;42.120;24.732;2023-06-19T13:08:37;99051.78;;;36.74;25.55
8416;BME280;4245;42.120;24.732;2023-06-19T13:11:05;99056.97;;;36.86;25.59
8416;BME280;4245;42.120;24.732;2023-06-19T13:13:32;99058.94;;;36.75;25.92